createdAt,value
2023-05-19T00:00:34.692Z,19526.2305
2023-05-19T00:01:35.777Z,19522.6914
2023-05-19T00:02:37.289Z,19521.9238
2023-05-19T00:03:38.728Z,19522.4609
2023-05-19T00:04:40.141Z,19520.0762
2023-05-19T00:05:41.514Z,19520.7695
2023-05-19T00:06:42.959Z,19526.3848
2023-05-19T00:07:44.355Z,19525.4609
2023-05-19T00:08:45.886Z,19523.6152
2023-05-19T00:09:47.269Z,19528.9238
2023-05-19T00:10:48.643Z,19525.4609
2023-05-19T00:11:50.032Z,19525.0000
2023-05-19T00:12:53.725Z,19520.1543
2023-05-19T00:13:52.906Z,19522.7695
2023-05-19T00:14:54.417Z,19520.3086
2023-05-19T00:15:55.773Z,19526.2305
2023-05-19T00:16:57.286Z,19526.7695
2023-05-19T00:17:58.724Z,19525.6152
2023-05-19T00:19:00.164Z,19526.0000
2023-05-19T00:20:01.416Z,19526.6914
2023-05-19T00:21:02.890Z,19527.6152
2023-05-19T00:22:04.281Z,19525.3848
2023-05-19T00:23:05.738Z,19523.6914
2023-05-19T00:24:07.219Z,19524.0762
2023-05-19T00:25:08.644Z,19532.4609
2023-05-19T00:26:09.984Z,19525.9238
2023-05-19T00:27:11.396Z,19522.6152
2023-05-19T00:28:12.741Z,19525.1543
2023-05-19T00:29:14.307Z,19525.0000
2023-05-19T00:30:15.680Z,19522.6914
2023-05-19T00:31:17.215Z,19525.6152
2023-05-19T00:32:18.650Z,19523.1543
2023-05-19T00:33:19.961Z,19527.5391
2023-05-19T00:34:21.426Z,19525.9238
2023-05-19T00:35:22.856Z,19526.3848
2023-05-19T00:36:24.146Z,19528.5391
2023-05-19T00:37:25.673Z,19524.8457
2023-05-19T00:38:27.170Z,19521.4609
2023-05-19T00:39:28.512Z,19522.0762
2023-05-19T00:40:30.106Z,19526.3848
2023-05-19T00:41:31.420Z,19526.5391
2023-05-19T00:42:32.792Z,19526.8457
2023-05-19T00:43:34.270Z,19522.0762
2023-05-19T00:44:35.604Z,19523.4609
2023-05-19T00:45:37.151Z,19526.0000
2023-05-19T00:46:38.574Z,19523.8457
2023-05-19T00:47:39.968Z,19524.7695
2023-05-19T00:48:41.342Z,19525.4609
2023-05-19T00:49:42.796Z,19525.0762
2023-05-19T00:50:44.220Z,19528.6152
2023-05-19T00:51:45.586Z,19529.2305
2023-05-19T00:52:46.988Z,19525.8457
2023-05-19T00:53:48.587Z,19528.3086
2023-05-19T00:54:49.886Z,19524.3848
2023-05-19T00:55:51.389Z,19523.0000
2023-05-19T00:56:52.796Z,19525.9238
2023-05-19T00:57:54.201Z,19523.2305
2023-05-19T00:58:55.654Z,19525.7695
2023-05-19T00:59:57.064Z,19522.8457
2023-05-19T01:00:58.601Z,19528.3086
2023-05-19T01:01:59.924Z,19521.4609
2023-05-19T01:03:01.371Z,19529.5391
2023-05-19T01:04:02.868Z,19522.7695
2023-05-19T01:05:04.174Z,19526.5391
2023-05-19T01:06:05.542Z,19524.2305
2023-05-19T01:07:07.013Z,19525.5391
2023-05-19T01:08:08.468Z,19525.7695
2023-05-19T01:09:09.847Z,19522.5391
2023-05-19T01:10:11.250Z,19525.8457
2023-05-19T01:11:12.723Z,19526.9238
2023-05-19T01:12:14.122Z,19525.9238
2023-05-19T01:13:15.621Z,19526.4609
2023-05-19T01:14:16.880Z,19527.2305
2023-05-19T01:15:18.419Z,19524.7695
2023-05-19T01:16:19.888Z,19525.4609
2023-05-19T01:17:21.250Z,19523.1543
2023-05-19T01:18:22.643Z,19528.4609
2023-05-19T01:19:24.137Z,19528.0762
2023-05-19T01:20:25.485Z,19523.9238
2023-05-19T01:21:27.028Z,19523.9238
2023-05-19T01:22:28.357Z,19526.0762
2023-05-19T01:23:29.793Z,19521.5391
2023-05-19T01:24:31.195Z,19522.9238
2023-05-19T01:25:32.656Z,19523.9238
2023-05-19T01:26:34.059Z,19526.3086
2023-05-19T01:27:50.302Z,19525.9238
2023-05-19T01:28:36.895Z,19527.0996
2023-05-19T01:29:38.291Z,19525.3086
2023-05-19T01:30:39.810Z,19526.4609
2023-05-19T01:31:41.310Z,19527.3086
2023-05-19T01:32:42.651Z,19525.7695
2023-05-19T01:33:44.020Z,19523.6914
2023-05-19T01:34:45.480Z,19526.2305
2023-05-19T01:35:46.814Z,19525.7695
2023-05-19T01:36:48.298Z,19523.6152
2023-05-19T01:37:49.690Z,19527.7695
2023-05-19T01:38:51.195Z,19526.8457
2023-05-19T01:39:52.605Z,19527.3086
2023-05-19T01:40:54.043Z,19532.7695
2023-05-19T01:41:55.514Z,19530.6914
2023-05-19T01:42:57.866Z,19526.0000
2023-05-19T01:43:58.268Z,19531.7695
2023-05-19T01:44:59.643Z,19523.5391
2023-05-19T01:46:01.149Z,19524.6914
2023-05-19T01:47:02.593Z,19528.7695
2023-05-19T01:48:04.007Z,19525.9238
2023-05-19T01:49:05.439Z,19526.7695
2023-05-19T01:50:06.809Z,19528.5391
2023-05-19T01:51:08.288Z,19525.9238
2023-05-19T01:52:09.733Z,19529.0000
2023-05-19T01:53:11.150Z,19529.3086
2023-05-19T01:54:12.559Z,19524.3848
2023-05-19T01:55:14.061Z,19524.7695
2023-05-19T01:56:15.378Z,19526.1543
2023-05-19T01:57:16.849Z,19526.3848
2023-05-19T01:58:18.203Z,19527.6152
2023-05-19T01:59:19.643Z,19527.9238
2023-05-19T02:00:21.406Z,19530.2305
2023-05-19T02:01:22.470Z,19526.1543
2023-05-19T02:02:24.014Z,19525.7695
2023-05-19T02:03:25.397Z,19525.8457
2023-05-19T02:04:26.917Z,19528.3848
2023-05-19T02:05:28.209Z,19529.1543
2023-05-19T02:06:29.623Z,19528.5391
2023-05-19T02:07:30.983Z,19528.4609
2023-05-19T02:08:32.474Z,19531.1543
2023-05-19T02:09:33.918Z,19527.7695
2023-05-19T02:10:35.338Z,19525.9238
2023-05-19T02:11:36.721Z,19528.3086
2023-05-19T02:12:38.266Z,19526.4609
2023-05-19T02:13:39.564Z,19526.6914
2023-05-19T02:14:41.045Z,19526.2305
2023-05-19T02:15:42.539Z,19524.6914
2023-05-19T02:16:43.821Z,19523.6152
2023-05-19T02:17:45.366Z,19526.9238
2023-05-19T02:18:46.714Z,19527.3848
2023-05-19T02:19:48.171Z,19526.9238
2023-05-19T02:20:49.548Z,19526.8457
2023-05-19T02:21:50.990Z,19526.3848
2023-05-19T02:22:52.375Z,19527.0762
2023-05-19T02:23:53.869Z,19527.0000
2023-05-19T02:24:55.288Z,19525.3848
2023-05-19T02:25:56.800Z,19526.5391
2023-05-19T02:26:58.083Z,19528.6914
2023-05-19T02:27:59.679Z,19530.0000
2023-05-19T02:29:01.097Z,19527.7695
2023-05-19T02:30:02.530Z,19525.6914
2023-05-19T02:31:03.921Z,19531.3086
2023-05-19T02:32:05.494Z,19528.2305
2023-05-19T02:33:06.856Z,19528.6152
2023-05-19T02:34:08.207Z,19526.6152
2023-05-19T02:35:09.649Z,19523.0000
2023-05-19T02:36:11.009Z,19524.2305
2023-05-19T02:37:12.456Z,19527.6914
2023-05-19T02:38:13.911Z,19529.0762
2023-05-19T02:39:15.260Z,19527.8457
2023-05-19T02:40:16.640Z,19525.7695
2023-05-19T02:41:18.107Z,19523.5391
2023-05-19T02:42:19.486Z,19526.6914
2023-05-19T02:43:21.033Z,19526.5391
2023-05-19T02:44:22.468Z,19526.3848
2023-05-19T02:45:23.805Z,19531.1543
2023-05-19T02:46:25.309Z,19525.6914
2023-05-19T02:47:26.712Z,19528.7695
2023-05-19T02:48:28.281Z,19528.1543
2023-05-19T02:49:29.559Z,19531.0762
2023-05-19T02:50:31.215Z,19526.4609
2023-05-19T02:51:32.456Z,19526.4609
2023-05-19T02:52:33.910Z,19527.6152
2023-05-19T02:53:35.286Z,19527.3848
2023-05-19T02:54:36.685Z,19531.3086
2023-05-19T02:55:38.112Z,19529.3086
2023-05-19T02:56:39.578Z,19523.0000
2023-05-19T02:57:41.017Z,19528.5391
2023-05-19T02:58:42.480Z,19524.6914
2023-05-19T02:59:43.868Z,19530.3086
2023-05-19T03:00:45.313Z,19528.4609
2023-05-19T03:01:46.722Z,19526.3848
2023-05-19T03:02:48.216Z,19526.1543
2023-05-19T03:03:49.676Z,19537.2305
2023-05-19T03:04:51.010Z,19532.5391
2023-05-19T03:05:52.471Z,19535.8457
2023-05-19T03:06:53.826Z,19528.6914
2023-05-19T03:07:55.322Z,19529.9238
2023-05-19T03:08:57.266Z,19528.5391
2023-05-19T03:09:58.141Z,19530.3086
2023-05-19T03:10:59.553Z,19529.3848
2023-05-19T03:12:00.993Z,19526.3848
2023-05-19T03:13:02.404Z,19530.4609
2023-05-19T03:14:03.874Z,19528.8457
2023-05-19T03:15:05.252Z,19525.0000
2023-05-19T03:16:06.782Z,19531.8457
2023-05-19T03:17:08.328Z,19524.0762
2023-05-19T03:18:09.629Z,19528.6914
2023-05-19T03:19:11.023Z,19527.3848
2023-05-19T03:20:12.534Z,19526.0000
2023-05-19T03:21:13.792Z,19533.3848
2023-05-19T03:22:15.236Z,19530.8457
2023-05-19T03:23:16.629Z,19528.2305
2023-05-19T03:24:18.250Z,19529.6152
2023-05-19T03:25:19.443Z,19527.9238
2023-05-19T03:26:20.953Z,19530.5391
2023-05-19T03:27:22.379Z,19529.3848
2023-05-19T03:28:23.794Z,19528.8457
2023-05-19T03:29:25.262Z,19530.3086
2023-05-19T03:30:26.695Z,19529.4609
2023-05-19T03:31:28.066Z,19529.3848
2023-05-19T03:32:29.590Z,19529.0000
2023-05-19T03:33:31.084Z,19533.0000
2023-05-19T03:34:32.377Z,19532.3848
2023-05-19T03:35:33.764Z,19532.3848
2023-05-19T03:36:35.192Z,19531.5391
2023-05-19T03:37:36.612Z,19529.6152
2023-05-19T03:38:37.969Z,19527.0762
2023-05-19T03:39:40.385Z,19527.4609
2023-05-19T03:40:40.951Z,19532.8457
2023-05-19T03:41:42.268Z,19531.9238
2023-05-19T03:42:43.751Z,19529.0000
2023-05-19T03:43:45.140Z,19525.5391
2023-05-19T03:44:46.610Z,19528.4609
2023-05-19T03:45:48.053Z,19531.0762
2023-05-19T03:46:49.488Z,19529.6914
2023-05-19T03:47:50.902Z,19527.8457
2023-05-19T03:48:52.381Z,19531.1543
2023-05-19T03:49:53.736Z,19532.5391
2023-05-19T03:50:55.270Z,19527.3848
2023-05-19T03:51:56.537Z,19527.9238
2023-05-19T03:52:58.100Z,19533.3848
2023-05-19T03:53:59.403Z,19527.6914
2023-05-19T03:55:00.901Z,19533.0762
2023-05-19T03:56:02.283Z,19532.2305
2023-05-19T03:57:03.722Z,19529.2305
2023-05-19T03:58:05.037Z,19528.0762
2023-05-19T03:59:06.542Z,19538.3848
2023-05-19T04:00:08.007Z,19532.8457
2023-05-19T04:01:09.433Z,19530.3848
2023-05-19T04:02:10.929Z,19536.2305
2023-05-19T04:03:12.270Z,19532.2305
2023-05-19T04:04:13.726Z,19526.7695
2023-05-19T04:05:15.141Z,19530.3086
2023-05-19T04:06:16.404Z,19531.6152
2023-05-19T04:07:17.930Z,19528.9238
2023-05-19T04:08:19.334Z,19530.8457
2023-05-19T04:09:20.718Z,19536.3086
2023-05-19T04:10:22.305Z,19532.4609
2023-05-19T04:11:23.572Z,19528.3086
2023-05-19T04:12:25.079Z,19532.8457
2023-05-19T04:13:26.395Z,19530.5391
2023-05-19T04:14:27.896Z,19528.3848
2023-05-19T04:15:29.366Z,19530.0000
2023-05-19T04:16:30.929Z,19528.4609
2023-05-19T04:17:32.223Z,19528.5391
2023-05-19T04:18:33.593Z,19530.6152
2023-05-19T04:19:34.981Z,19527.0000
2023-05-19T04:20:36.455Z,19529.3848
2023-05-19T04:21:37.820Z,19529.8457
2023-05-19T04:22:39.270Z,19527.7695
2023-05-19T04:23:40.777Z,19524.8457
2023-05-19T04:24:42.166Z,19527.0762
2023-05-19T04:25:43.534Z,19525.0000
2023-05-19T04:26:45.014Z,19523.7695
2023-05-19T04:27:46.453Z,19523.8457
2023-05-19T04:28:47.860Z,19530.3086
2023-05-19T04:29:49.208Z,19525.9238
2023-05-19T04:30:50.742Z,19526.2305
2023-05-19T04:31:52.062Z,19523.4609
2023-05-19T04:32:53.572Z,19519.1543
2023-05-19T04:33:55.010Z,19522.3848
2023-05-19T04:34:56.365Z,19523.9238
2023-05-19T04:35:57.836Z,19524.8457
2023-05-19T04:36:59.284Z,19521.6152
2023-05-19T04:38:00.577Z,19524.9238
2023-05-19T04:39:02.115Z,19522.6914
2023-05-19T04:40:03.568Z,19518.8457
2023-05-19T04:41:04.990Z,19518.6152
2023-05-19T04:42:06.299Z,19519.1543
2023-05-19T04:43:07.887Z,19519.1543
2023-05-19T04:44:09.337Z,19520.2305
2023-05-19T04:45:10.516Z,19517.4609
2023-05-19T04:46:13.414Z,19519.0000
2023-05-19T04:47:13.593Z,19519.3086
2023-05-19T04:48:14.984Z,19519.6914
2023-05-19T04:49:16.293Z,19517.1543
2023-05-19T04:50:17.750Z,19516.2305
2023-05-19T04:51:19.177Z,19517.1543
2023-05-19T04:52:20.624Z,19516.0762
2023-05-19T04:53:22.018Z,19519.3848
2023-05-19T04:54:23.348Z,19508.1543
2023-05-19T04:55:24.800Z,19509.7695
2023-05-19T04:56:26.331Z,19514.8457
2023-05-19T04:57:27.708Z,19514.6914
2023-05-19T04:58:29.118Z,19516.3086
2023-05-19T04:59:30.558Z,19513.7695
2023-05-19T05:00:32.111Z,19507.9238
2023-05-19T05:01:33.362Z,19513.0762
2023-05-19T05:02:34.930Z,19510.6914
2023-05-19T05:03:36.211Z,19512.8457
2023-05-19T05:04:37.717Z,19512.6152
2023-05-19T05:05:39.025Z,19503.3848
2023-05-19T05:06:40.546Z,19509.6914
2023-05-19T05:07:41.937Z,19509.3848
2023-05-19T05:08:43.313Z,19506.6914
2023-05-19T05:09:44.796Z,19512.2305
2023-05-19T05:10:46.175Z,19506.0000
2023-05-19T05:11:47.590Z,19509.1543
2023-05-19T05:12:49.005Z,19506.0762
2023-05-19T05:13:50.404Z,19508.0762
2023-05-19T05:14:51.796Z,19506.6152
2023-05-19T05:15:53.166Z,19503.0762
2023-05-19T05:16:54.761Z,19503.3848
2023-05-19T05:17:56.207Z,19506.2305
2023-05-19T05:18:57.640Z,19507.0762
2023-05-19T05:19:59.016Z,19508.0762
2023-05-19T05:21:00.347Z,19506.3848
2023-05-19T05:22:01.812Z,19511.7695
2023-05-19T05:23:03.225Z,19505.6914
2023-05-19T05:24:04.657Z,19504.4609
2023-05-19T05:25:06.010Z,19506.9238
2023-05-19T05:26:07.537Z,19504.3086
2023-05-19T05:27:08.898Z,19503.2305
2023-05-19T05:28:10.380Z,19506.6914
2023-05-19T05:29:11.747Z,19503.1543
2023-05-19T05:30:13.242Z,19505.0000
2023-05-19T05:31:14.565Z,19504.5391
2023-05-19T05:32:16.104Z,19503.7695
2023-05-19T05:33:17.626Z,19502.1543
2023-05-19T05:34:18.895Z,19501.5391
2023-05-19T05:35:20.397Z,19500.0000
2023-05-19T05:36:21.740Z,19503.7695
2023-05-19T05:37:23.174Z,19504.2305
2023-05-19T05:38:24.615Z,19501.5391
2023-05-19T05:39:25.995Z,19500.0762
2023-05-19T05:40:27.428Z,19497.3086
2023-05-19T05:41:28.801Z,19501.2305
2023-05-19T05:42:30.388Z,19501.3086
2023-05-19T05:43:31.737Z,19496.3848
2023-05-19T05:44:33.128Z,19495.1543
2023-05-19T05:45:34.711Z,19496.4609
2023-05-19T05:46:35.865Z,19497.3848
2023-05-19T05:47:37.389Z,19498.0762
2023-05-19T05:48:38.890Z,19494.7695
2023-05-19T05:49:40.154Z,19499.3848
2023-05-19T05:50:41.613Z,19495.6152
2023-05-19T05:51:48.456Z,19494.6914
2023-05-19T05:52:44.530Z,19498.6660
2023-05-19T05:53:45.919Z,19497.6152
2023-05-19T05:54:47.395Z,19499.1543
2023-05-19T05:55:48.771Z,19500.6152
2023-05-19T05:56:50.226Z,19498.4609
2023-05-19T05:57:51.593Z,19495.1543
2023-05-19T05:58:53.036Z,19490.6914
2023-05-19T05:59:54.445Z,19494.5391
2023-05-19T06:00:55.832Z,19490.8457
2023-05-19T06:01:57.248Z,19490.5391
2023-05-19T06:02:58.882Z,19491.0762
2023-05-19T06:04:00.141Z,19496.1543
2023-05-19T06:05:01.613Z,19493.4609
2023-05-19T06:06:03.010Z,19489.5391
2023-05-19T06:07:04.337Z,19487.2305
2023-05-19T06:08:05.874Z,19478.6152
2023-05-19T06:09:07.256Z,19473.6914
2023-05-19T06:10:08.581Z,19474.1543
2023-05-19T06:11:10.058Z,19465.3848
2023-05-19T06:12:11.470Z,19462.9238
2023-05-19T06:13:13.019Z,19466.3086
2023-05-19T06:14:14.335Z,19461.7695
2023-05-19T06:15:15.776Z,19452.0000
2023-05-19T06:16:17.208Z,19452.9238
2023-05-19T06:17:18.602Z,19445.2305
2023-05-19T06:18:20.054Z,19434.4609
2023-05-19T06:19:21.460Z,19414.6914
2023-05-19T06:20:22.887Z,19405.5391
2023-05-19T06:21:24.248Z,19399.0000
2023-05-19T06:22:25.709Z,19397.5391
2023-05-19T06:23:27.168Z,19400.0000
2023-05-19T06:24:28.635Z,19386.3848
2023-05-19T06:25:29.968Z,19384.6914
2023-05-19T06:26:31.283Z,19369.8457
2023-05-19T06:27:34.644Z,19361.8457
2023-05-19T06:28:34.245Z,19355.7695
2023-05-19T06:29:35.793Z,19345.3848
2023-05-19T06:30:37.160Z,19343.3848
2023-05-19T06:31:38.488Z,19340.4609
2023-05-19T06:32:40.044Z,19338.0000
2023-05-19T06:33:41.521Z,19336.5391
2023-05-19T06:34:42.943Z,19339.3086
2023-05-19T06:35:44.261Z,19357.7695
2023-05-19T06:36:45.767Z,19358.3086
2023-05-19T06:37:47.118Z,19342.6914
2023-05-19T06:38:49.398Z,19330.3086
2023-05-19T06:39:49.968Z,19319.6914
2023-05-19T06:40:51.409Z,19317.7695
2023-05-19T06:41:52.786Z,19332.5391
2023-05-19T06:42:54.115Z,19341.6152
2023-05-19T06:43:55.682Z,19335.2305
2023-05-19T06:44:57.097Z,19321.6152
2023-05-19T06:45:58.355Z,19315.1543
2023-05-19T06:46:59.892Z,19317.8457
2023-05-19T06:48:01.349Z,19307.5391
2023-05-19T06:49:02.756Z,19321.0000
2023-05-19T06:50:04.185Z,19332.6914
2023-05-19T06:51:05.834Z,19332.8457
2023-05-19T06:52:06.974Z,19326.6914
2023-05-19T06:53:08.419Z,19326.9238
2023-05-19T06:54:09.880Z,19313.6914
2023-05-19T06:55:11.906Z,19297.4609
2023-05-19T06:56:12.758Z,19319.7695
2023-05-19T06:57:14.105Z,19327.2305
2023-05-19T06:58:15.529Z,19325.7695
2023-05-19T06:59:17.044Z,19321.2305
2023-05-19T07:00:19.954Z,19319.5391
2023-05-19T07:01:19.793Z,19302.5391
2023-05-19T07:02:21.184Z,19294.2305
2023-05-19T07:03:22.805Z,19311.3848
2023-05-19T07:04:24.088Z,19319.4609
2023-05-19T07:05:26.449Z,19318.3086
2023-05-19T07:06:26.865Z,19307.6152
2023-05-19T07:07:28.240Z,19293.8457
2023-05-19T07:08:29.764Z,19278.3086
2023-05-19T07:09:31.227Z,19289.6152
2023-05-19T07:10:32.824Z,19315.4609
2023-05-19T07:11:33.973Z,19310.3086
2023-05-19T07:12:35.394Z,19303.3086
2023-05-19T07:13:36.868Z,19300.6914
2023-05-19T07:14:38.318Z,19289.9238
2023-05-19T07:15:39.782Z,19277.7695
2023-05-19T07:16:41.128Z,19303.3086
2023-05-19T07:17:42.570Z,19308.4609
2023-05-19T07:18:44.044Z,19300.2305
2023-05-19T07:19:45.381Z,19290.3086
2023-05-19T07:20:46.884Z,19285.3086
2023-05-19T07:21:48.258Z,19276.2305
2023-05-19T07:22:49.615Z,19297.2305
2023-05-19T07:23:51.076Z,19308.9238
2023-05-19T07:24:52.555Z,19293.8457
2023-05-19T07:25:54.415Z,19289.4609
2023-05-19T07:26:55.382Z,19291.8457
2023-05-19T07:27:56.777Z,19276.3848
2023-05-19T07:28:58.230Z,19295.7695
2023-05-19T07:29:59.617Z,19304.3848
2023-05-19T07:31:01.187Z,19298.6152
2023-05-19T07:32:02.567Z,19282.8457
2023-05-19T07:33:03.919Z,19279.6152
2023-05-19T07:34:05.330Z,19273.6152
2023-05-19T07:35:06.688Z,19286.3848
2023-05-19T07:36:08.210Z,19294.1543
2023-05-19T07:37:09.512Z,19283.5391
2023-05-19T07:38:11.091Z,19260.7695
2023-05-19T07:39:12.433Z,19248.9238
2023-05-19T07:40:13.865Z,19243.2305
2023-05-19T07:41:15.333Z,19271.6152
2023-05-19T07:42:16.642Z,19284.0762
2023-05-19T07:43:17.987Z,19274.5391
2023-05-19T07:44:19.538Z,19262.8457
2023-05-19T07:45:21.008Z,19257.6914
2023-05-19T07:46:22.550Z,19250.3848
